Time;durP1;ratioP1;P1;durP2;ratioP2;P2;SDS_P1;SDS_P2;PMS_P1;PMS_P2;Temp;Humidity;BMP_temperature;BMP_pressure;BME280_temperature;BME280_humidity;BME280_pressure;Samples;Min_cycle;Max_cycle;Signal;HPM_P1;HPM_P2
2022/10/07 00:00:25;;;;;;;;;;;23.20;53.40;;;;;;1582865;74;698;-67
2022/10/07 00:02:27;;;;;;;;;;;23.20;53.30;;;;;;1591857;73;1913;-66
2022/10/07 00:04:29;;;;;;;;;;;23.20;53.20;;;;;;1595788;74;706;-67
2022/10/07 00:06:31;;;;;;;;;;;23.30;53.10;;;;;;1591555;73;1125;-66
2022/10/07 00:08:34;;;;;;;;;;;23.40;53.00;;;;;;1595234;73;710;-66
2022/10/07 00:10:37;;;;;;;;;;;23.30;53.10;;;;;;1600269;73;786;-66
2022/10/07 00:12:39;;;;;;;;;;;23.30;53.00;;;;;;1595747;73;773;-67
2022/10/07 00:14:41;;;;;;;;;;;23.40;52.80;;;;;;1592353;73;1160;-67
2022/10/07 00:16:43;;;;;;;;;;;23.40;52.60;;;;;;1598052;73;1139;-67
2022/10/07 00:18:45;;;;;;;;;;;23.40;52.70;;;;;;1594444;73;700;-67
2022/10/07 00:20:47;;;;;;;;;;;23.40;52.80;;;;;;1598093;73;689;-68
2022/10/07 00:22:48;;;;;;;;;;;23.40;52.80;;;;;;1594565;73;1939;-67
2022/10/07 00:24:50;;;;;;;;;;;23.40;52.80;;;;;;1591789;73;1214;-71
2022/10/07 00:26:52;;;;;;;;;;;23.40;52.80;;;;;;1594271;73;744;-68
2022/10/07 00:28:56;;;;;;;;;;;23.30;52.90;;;;;;1593264;73;739;-66
2022/10/07 00:31:02;;;;;;;;;;;23.40;52.90;;;;;;1593879;73;2374;-67
2022/10/07 00:33:04;;;;;;;;;;;23.30;53.00;;;;;;1606237;73;1004;-67
2022/10/07 00:35:06;;;;;;;;;;;23.30;53.00;;;;;;1597447;73;1119;-67
2022/10/07 00:37:08;;;;;;;;;;;23.30;53.10;;;;;;1597328;73;809;-66
2022/10/07 00:39:11;;;;;;;;;;;23.30;53.10;;;;;;1585219;73;723;-66
2022/10/07 00:41:14;;;;;;;;;;;23.30;53.10;;;;;;1601706;73;859;-67
2022/10/07 00:43:28;;;;;;;;;;;23.30;53.10;;;;;;1587952;73;1942;-67
2022/10/07 00:45:30;;;;;;;;;;;23.40;53.00;;;;;;1597007;73;1531;-68
2022/10/07 00:47:33;;;;;;;;;;;23.30;53.00;;;;;;1594537;73;730;-69
2022/10/07 00:49:39;;;;;;;;;;;23.30;53.10;;;;;;1604199;73;793;-66
2022/10/07 00:51:40;;;;;;;;;;;23.30;53.10;;;;;;1587682;73;1763;-67
2022/10/07 00:53:43;;;;;;;;;;;23.30;53.10;;;;;;1594506;73;789;-67
2022/10/07 00:55:45;;;;;;;;;;;23.30;53.20;;;;;;1609451;70;2081;-70
2022/10/07 00:57:47;;;;;;;;;;;23.30;53.30;;;;;;1603460;73;729;-68
2022/10/07 00:59:49;;;;;;;;;;;23.30;53.30;;;;;;1617835;73;1632;-68
2022/10/07 01:01:50;;;;;;;;;;;23.30;53.30;;;;;;1617305;73;719;-69
2022/10/07 01:03:52;;;;;;;;;;;23.20;53.30;;;;;;1603302;73;1929;-70
2022/10/07 01:05:54;;;;;;;;;;;23.20;53.30;;;;;;1608586;73;1231;-68
2022/10/07 01:07:56;;;;;;;;;;;23.20;53.30;;;;;;1620068;73;630;-68
2022/10/07 01:09:58;;;;;;;;;;;23.20;53.40;;;;;;1611497;73;823;-70
2022/10/07 01:12:02;;;;;;;;;;;23.20;53.40;;;;;;1618474;73;678;-67
2022/10/07 01:14:18;;;;;;;;;;;23.20;53.40;;;;;;1618132;73;1652;-68
2022/10/07 01:16:24;;;;;;;;;;;23.20;53.40;;;;;;1610267;72;1149;-67
2022/10/07 01:18:37;;;;;;;;;;;23.20;53.40;;;;;;1612117;72;1775;-67
2022/10/07 01:20:44;;;;;;;;;;;23.20;53.40;;;;;;1617035;73;724;-68
2022/10/07 01:22:48;;;;;;;;;;;23.20;53.40;;;;;;1616970;73;1920;-67
2022/10/07 01:24:53;;;;;;;;;;;23.20;53.60;;;;;;1614144;73;787;-70
2022/10/07 01:26:57;;;;;;;;;;;23.20;53.40;;;;;;1596043;73;1552;-69
2022/10/07 01:29:00;;;;;;;;;;;23.20;53.40;;;;;;1606608;73;767;-68
2022/10/07 01:31:03;;;;;;;;;;;23.20;53.50;;;;;;1618858;73;712;-67
2022/10/07 01:33:06;;;;;;;;;;;23.20;53.50;;;;;;1613781;73;850;-67
2022/10/07 01:35:09;;;;;;;;;;;23.20;53.50;;;;;;1615591;72;1167;-66
2022/10/07 01:37:13;;;;;;;;;;;23.20;53.50;;;;;;1620474;73;759;-68
2022/10/07 01:39:15;;;;;;;;;;;23.10;53.60;;;;;;1602588;73;745;-67
2022/10/07 01:41:18;;;;;;;;;;;23.10;53.60;;;;;;1621779;73;1542;-68
2022/10/07 01:43:20;;;;;;;;;;;23.10;53.80;;;;;;1612146;73;1933;-68
2022/10/07 01:45:22;;;;;;;;;;;23.10;53.80;;;;;;1621373;73;1106;-68
2022/10/07 01:47:27;;;;;;;;;;;23.10;53.80;;;;;;1607439;72;831;-67
2022/10/07 01:49:29;;;;;;;;;;;23.10;53.70;;;;;;1610999;72;811;-68
2022/10/07 01:51:32;;;;;;;;;;;23.10;53.90;;;;;;1618185;72;709;-68
2022/10/07 01:53:39;;;;;;;;;;;23.10;53.90;;;;;;1620221;73;727;-67
2022/10/07 01:55:51;;;;;;;;;;;23.10;53.90;;;;;;1611032;72;1956;-68
2022/10/07 01:58:05;;;;;;;;;;;23.00;53.80;;;;;;1599859;74;662;-67
2022/10/07 02:00:10;;;;;;;;;;;23.00;54.00;;;;;;1607293;74;737;-68
2022/10/07 02:02:23;;;;;;;;;;;23.00;53.90;;;;;;1613110;73;759;-67
2022/10/07 02:04:44;;;;;;;;;;;23.00;54.00;;;;;;1609916;73;1910;-68
2022/10/07 02:06:48;;;;;;;;;;;23.00;54.10;;;;;;1601497;74;1210;-68
2022/10/07 02:08:50;;;;;;;;;;;22.90;54.10;;;;;;1605119;74;1941;-68
2022/10/07 02:10:54;;;;;;;;;;;23.00;54.10;;;;;;1607993;74;741;-68
2022/10/07 02:12:57;;;;;;;;;;;23.00;54.20;;;;;;1606386;74;706;-68
2022/10/07 02:15:03;;;;;;;;;;;23.00;54.20;;;;;;1599556;74;1499;-67
2022/10/07 02:17:07;;;;;;;;;;;23.00;54.20;;;;;;1600012;74;691;-68
2022/10/07 02:19:10;;;;;;;;;;;23.00;54.20;;;;;;1600889;74;942;-68
2022/10/07 02:21:12;;;;;;;;;;;23.00;54.20;;;;;;1598249;74;1581;-68
2022/10/07 02:23:14;;;;;;;;;;;23.00;54.20;;;;;;1600848;74;1932;-69
2022/10/07 02:25:16;;;;;;;;;;;23.00;54.20;;;;;;1600003;74;1138;-64
2022/10/07 02:27:19;;;;;;;;;;;23.00;54.30;;;;;;1603520;74;739;-67
2022/10/07 02:29:21;;;;;;;;;;;23.00;54.30;;;;;;1601119;74;781;-67
2022/10/07 02:31:24;;;;;;;;;;;23.00;54.40;;;;;;1607403;74;869;-67
2022/10/07 02:33:26;;;;;;;;;;;23.00;54.30;;;;;;1609566;74;719;-67
2022/10/07 02:35:30;;;;;;;;;;;23.00;54.20;;;;;;1603593;74;1102;-68
2022/10/07 02:37:34;;;;;;;;;;;23.10;54.30;;;;;;1605353;74;1540;-68
2022/10/07 02:39:35;;;;;;;;;;;23.00;54.20;;;;;;1608151;73;781;-68
2022/10/07 02:41:40;;;;;;;;;;;23.00;54.10;;;;;;1596648;74;815;-68
2022/10/07 02:43:55;;;;;;;;;;;23.10;54.20;;;;;;1607015;74;1916;-67
2022/10/07 02:46:10;;;;;;;;;;;23.10;54.20;;;;;;1597908;74;1258;-68
2022/10/07 02:48:14;;;;;;;;;;;23.10;54.20;;;;;;1569292;74;1073;-68
2022/10/07 02:50:18;;;;;;;;;;;23.00;54.10;;;;;;1603865;74;762;-67
2022/10/07 02:52:20;;;;;;;;;;;23.00;54.20;;;;;;1609331;74;1521;-67
2022/10/07 02:54:24;;;;;;;;;;;23.10;54.30;;;;;;1598076;74;816;-67
2022/10/07 02:56:25;;;;;;;;;;;23.00;54.20;;;;;;1600716;74;1254;-67
2022/10/07 02:58:27;;;;;;;;;;;23.10;54.30;;;;;;1596623;74;740;-67
2022/10/07 03:00:29;;;;;;;;;;;23.00;54.20;;;;;;1608431;73;836;-68
2022/10/07 03:02:35;;;;;;;;;;;23.00;54.20;;;;;;1603542;74;739;-67
2022/10/07 03:04:37;;;;;;;;;;;23.00;54.20;;;;;;1604904;74;1932;-67
2022/10/07 03:06:41;;;;;;;;;;;23.00;54.30;;;;;;1603341;72;1496;-67
2022/10/07 03:08:42;;;;;;;;;;;23.00;54.20;;;;;;1600712;73;1223;-71
2022/10/07 03:10:44;;;;;;;;;;;23.00;54.20;;;;;;1603463;74;578;-68
2022/10/07 03:12:46;;;;;;;;;;;23.00;54.30;;;;;;1602828;74;810;-70
2022/10/07 03:14:48;;;;;;;;;;;23.00;54.30;;;;;;1601742;73;743;-68
2022/10/07 03:16:52;;;;;;;;;;;23.00;54.30;;;;;;1602557;74;1104;-69
2022/10/07 03:18:54;;;;;;;;;;;23.00;54.40;;;;;;1606178;74;1159;-68
2022/10/07 03:20:56;;;;;;;;;;;23.00;54.40;;;;;;1598725;74;1729;-68
2022/10/07 03:22:58;;;;;;;;;;;23.00;54.40;;;;;;1601212;74;719;-65
2022/10/07 03:25:00;;;;;;;;;;;23.00;54.40;;;;;;1602766;73;1960;-66
2022/10/07 03:27:05;;;;;;;;;;;23.00;54.40;;;;;;1601977;74;755;-67
2022/10/07 03:29:07;;;;;;;;;;;23.00;54.40;;;;;;1606428;72;1656;-68
2022/10/07 03:31:10;;;;;;;;;;;23.00;54.30;;;;;;1598971;73;880;-68
2022/10/07 03:33:12;;;;;;;;;;;23.00;54.40;;;;;;1607475;73;1539;-68
2022/10/07 03:35:14;;;;;;;;;;;23.00;54.40;;;;;;1602907;73;1100;-67
2022/10/07 03:37:16;;;;;;;;;;;23.00;54.40;;;;;;1604864;73;623;-68
2022/10/07 03:39:18;;;;;;;;;;;23.00;54.40;;;;;;1596585;73;571;-68
2022/10/07 03:41:20;;;;;;;;;;;23.00;54.40;;;;;;1614746;73;807;-68
2022/10/07 03:43:22;;;;;;;;;;;23.10;54.40;;;;;;1601491;73;1933;-67
2022/10/07 03:45:24;;;;;;;;;;;23.10;54.30;;;;;;1606886;72;1133;-68
2022/10/07 03:47:26;;;;;;;;;;;23.10;54.20;;;;;;1603962;73;1559;-67
2022/10/07 03:49:28;;;;;;;;;;;23.10;54.20;;;;;;1596813;73;810;-68
2022/10/07 03:51:30;;;;;;;;;;;23.10;54.20;;;;;;1597367;73;803;-66
2022/10/07 03:53:31;;;;;;;;;;;23.20;54.20;;;;;;1603832;73;708;-67
2022/10/07 03:55:34;;;;;;;;;;;23.10;54.10;;;;;;1603048;73;1144;-68
2022/10/07 03:57:52;;;;;;;;;;;23.10;54.10;;;;;;1609472;73;820;-67
2022/10/07 03:59:53;;;;;;;;;;;23.10;54.00;;;;;;1622226;72;779;-67
2022/10/07 04:01:55;;;;;;;;;;;23.10;54.10;;;;;;1616144;72;1341;-69
2022/10/07 04:04:02;;;;;;;;;;;23.10;54.20;;;;;;1596521;72;1924;-67
2022/10/07 04:06:02;;;;;;;;;;;23.10;54.30;;;;;;1610446;72;1203;-65
2022/10/07 04:08:04;;;;;;;;;;;23.00;54.20;;;;;;1621134;72;788;-69
2022/10/07 04:10:06;;;;;;;;;;;23.10;54.30;;;;;;1608870;72;696;-67
2022/10/07 04:12:08;;;;;;;;;;;23.10;54.30;;;;;;1597715;72;892;-67
2022/10/07 04:14:10;;;;;;;;;;;23.10;54.40;;;;;;1611643;72;788;-66
2022/10/07 04:16:12;;;;;;;;;;;23.10;54.40;;;;;;1616690;72;1496;-67
2022/10/07 04:18:13;;;;;;;;;;;23.10;54.20;;;;;;1613104;72;786;-67
2022/10/07 04:20:15;;;;;;;;;;;23.20;54.00;;;;;;1620083;72;680;-68
2022/10/07 04:22:17;;;;;;;;;;;23.30;53.80;;;;;;1613661;72;737;-69
2022/10/07 04:24:19;;;;;;;;;;;23.30;53.80;;;;;;1610369;72;1940;-69
2022/10/07 04:26:21;;;;;;;;;;;23.30;53.80;;;;;;1618202;72;1183;-68
2022/10/07 04:28:24;;;;;;;;;;;23.30;53.80;;;;;;1609550;72;790;-68
2022/10/07 04:30:27;;;;;;;;;;;23.30;53.80;;;;;;1600922;72;1535;-69
2022/10/07 04:32:29;;;;;;;;;;;23.20;53.70;;;;;;1622933;72;696;-68
2022/10/07 04:34:30;;;;;;;;;;;23.20;53.70;;;;;;1595216;73;668;-68
2022/10/07 04:36:32;;;;;;;;;;;23.20;53.70;;;;;;1609667;72;1141;-69
2022/10/07 04:38:34;;;;;;;;;;;23.30;53.70;;;;;;1623074;72;735;-69
2022/10/07 04:40:40;;;;;;;;;;;23.30;53.70;;;;;;1617332;72;728;-68
2022/10/07 04:45:01;;;;;;;;;;;23.30;53.60;;;;;;1599143;72;1918;-71
2022/10/07 04:47:05;;;;;;;;;;;23.20;53.40;;;;;;1611156;72;687;-68
2022/10/07 04:49:08;;;;;;;;;;;23.30;53.60;;;;;;1613891;72;766;-67
2022/10/07 04:51:10;;;;;;;;;;;23.30;53.50;;;;;;1609346;72;775;-68
2022/10/07 04:53:16;;;;;;;;;;;23.40;53.40;;;;;;1606308;72;711;-68
2022/10/07 04:55:17;;;;;;;;;;;23.30;53.40;;;;;;1609594;72;1148;-68
2022/10/07 04:57:19;;;;;;;;;;;23.30;53.60;;;;;;1614823;72;756;-65
2022/10/07 04:59:21;;;;;;;;;;;23.30;53.50;;;;;;1618478;72;1848;-68
2022/10/07 05:01:23;;;;;;;;;;;23.30;53.60;;;;;;1619862;72;768;-68
2022/10/07 05:03:26;;;;;;;;;;;23.30;53.70;;;;;;1606826;72;774;-69
2022/10/07 05:05:28;;;;;;;;;;;23.30;53.80;;;;;;1607284;72;1917;-68
2022/10/07 05:07:31;;;;;;;;;;;23.20;53.80;;;;;;1622205;72;685;-70
2022/10/07 05:09:33;;;;;;;;;;;23.30;54.20;;;;;;1610691;72;700;-69
2022/10/07 05:11:36;;;;;;;;;;;23.30;54.10;;;;;;1620816;72;1532;-69
2022/10/07 05:13:38;;;;;;;;;;;23.20;54.30;;;;;;1615620;72;784;-65
2022/10/07 05:15:49;;;;;;;;;;;23.20;54.50;;;;;;1615490;72;1175;-71
2022/10/07 05:17:54;;;;;;;;;;;23.10;54.80;;;;;;1623543;72;701;-67
2022/10/07 05:19:55;;;;;;;;;;;23.10;54.90;;;;;;1611925;72;1667;-67
2022/10/07 05:21:56;;;;;;;;;;;23.10;54.80;;;;;;1611556;72;758;-68
2022/10/07 05:23:58;;;;;;;;;;;23.30;54.30;;;;;;1615400;72;1948;-67
2022/10/07 05:26:03;;;;;;;;;;;23.40;53.80;;;;;;1616928;71;1538;-69
2022/10/07 05:28:04;;;;;;;;;;;23.50;53.70;;;;;;1627253;72;1381;-69
2022/10/07 05:30:08;;;;;;;;;;;23.40;53.50;;;;;;1614725;72;748;-68
2022/10/07 05:32:10;;;;;;;;;;;23.40;53.50;;;;;;1616812;72;1474;-67
2022/10/07 05:34:12;;;;;;;;;;;23.30;53.60;;;;;;1610696;72;697;-69
2022/10/07 05:36:13;;;;;;;;;;;23.30;53.80;;;;;;1612654;71;1153;-69
2022/10/07 05:38:15;;;;;;;;;;;23.30;53.90;;;;;;1610564;72;730;-68
2022/10/07 05:40:17;;;;;;;;;;;23.30;53.90;;;;;;1609114;72;1571;-71
2022/10/07 05:42:19;;;;;;;;;;;23.20;53.90;;;;;;1619739;72;809;-69
2022/10/07 05:44:21;;;;;;;;;;;23.20;53.90;;;;;;1610436;72;1947;-68
2022/10/07 05:46:23;;;;;;;;;;;23.10;54.00;;;;;;1615347;72;1141;-65
2022/10/07 05:48:25;;;;;;;;;;;23.30;53.80;;;;;;1622531;72;867;-68
2022/10/07 05:50:27;;;;;;;;;;;23.40;53.40;;;;;;1618849;72;779;-65
2022/10/07 05:52:29;;;;;;;;;;;23.50;53.30;;;;;;1625977;72;770;-67
2022/10/07 05:54:32;;;;;;;;;;;23.50;53.30;;;;;;1615631;72;1563;-68
2022/10/07 05:56:35;;;;;;;;;;;23.40;53.10;;;;;;1610483;72;1165;-67
2022/10/07 05:58:37;;;;;;;;;;;23.30;52.90;;;;;;1616237;72;1522;-68
2022/10/07 06:00:41;;;;;;;;;;;23.20;52.80;;;;;;1607292;72;861;-68
2022/10/07 06:02:43;;;;;;;;;;;23.10;52.70;;;;;;1617830;72;662;-68
2022/10/07 06:04:49;;;;;;;;;;;23.10;52.80;;;;;;1614564;72;1933;-68
2022/10/07 06:06:51;;;;;;;;;;;23.00;52.60;;;;;;1619036;71;1130;-66
2022/10/07 06:08:53;;;;;;;;;;;23.00;52.70;;;;;;1594353;72;1501;-66
2022/10/07 06:13:17;;;;;;;;;;;22.90;52.40;;;;;;1600389;72;1707;-69
2022/10/07 06:15:19;;;;;;;;;;;22.90;52.40;;;;;;1620144;72;1164;-72
2022/10/07 06:17:20;;;;;;;;;;;22.80;52.20;;;;;;1613253;72;776;-70
2022/10/07 06:19:22;;;;;;;;;;;22.80;52.30;;;;;;1618185;72;695;-71
2022/10/07 06:21:27;;;;;;;;;;;22.70;52.30;;;;;;1595432;72;807;-72
2022/10/07 06:23:29;;;;;;;;;;;22.90;52.40;;;;;;1608635;72;1433;-69
2022/10/07 06:25:31;;;;;;;;;;;22.80;52.10;;;;;;1618078;72;1914;-70
2022/10/07 06:27:33;;;;;;;;;;;22.80;52.10;;;;;;1610018;72;786;-70
2022/10/07 06:29:35;;;;;;;;;;;22.80;52.10;;;;;;1623045;72;821;-71
2022/10/07 06:31:37;;;;;;;;;;;22.80;51.90;;;;;;1623158;72;791;-71
2022/10/07 06:33:39;;;;;;;;;;;22.80;51.90;;;;;;1596768;72;732;-69
2022/10/07 06:35:41;;;;;;;;;;;22.70;51.80;;;;;;1610364;72;1126;-70
2022/10/07 06:37:43;;;;;;;;;;;22.70;51.80;;;;;;1610004;72;1561;-71
2022/10/07 06:39:44;;;;;;;;;;;22.70;51.80;;;;;;1616150;72;707;-70
2022/10/07 06:41:46;;;;;;;;;;;22.60;51.80;;;;;;1624407;72;762;-72
2022/10/07 06:43:48;;;;;;;;;;;22.60;51.80;;;;;;1620013;72;726;-70
2022/10/07 06:45:50;;;;;;;;;;;22.60;51.70;;;;;;1613784;71;1927;-71
2022/10/07 06:47:52;;;;;;;;;;;22.60;51.80;;;;;;1613722;72;783;-69
2022/10/07 06:49:54;;;;;;;;;;;22.60;51.80;;;;;;1612359;72;811;-71
2022/10/07 06:51:56;;;;;;;;;;;22.60;51.70;;;;;;1618247;72;1711;-72
2022/10/07 06:53:58;;;;;;;;;;;22.60;51.70;;;;;;1617623;72;791;-69
2022/10/07 06:56:03;;;;;;;;;;;22.70;51.70;;;;;;1613070;72;1153;-70
2022/10/07 06:58:05;;;;;;;;;;;22.60;51.50;;;;;;1618617;72;779;-72
2022/10/07 07:00:07;;;;;;;;;;;22.60;51.50;;;;;;1621668;72;767;-71
2022/10/07 07:02:10;;;;;;;;;;;22.60;51.40;;;;;;1615746;72;761;-70
2022/10/07 07:04:12;;;;;;;;;;;22.60;51.40;;;;;;1617264;72;1512;-71
2022/10/07 07:06:14;;;;;;;;;;;22.60;51.40;;;;;;1624690;71;1912;-70
2022/10/07 07:08:16;;;;;;;;;;;22.70;51.50;;;;;;1625365;72;687;-70
2022/10/07 07:10:18;;;;;;;;;;;22.70;51.50;;;;;;1618248;72;794;-71
2022/10/07 07:12:24;;;;;;;;;;;22.60;51.30;;;;;;1597962;72;771;-70
2022/10/07 07:14:24;;;;;;;;;;;22.60;51.40;;;;;;1612728;72;1677;-70
2022/10/07 07:16:26;;;;;;;;;;;22.60;51.30;;;;;;1611557;72;1189;-71
2022/10/07 07:18:28;;;;;;;;;;;22.60;51.30;;;;;;1624827;72;1325;-71
2022/10/07 07:20:34;;;;;;;;;;;22.60;51.20;;;;;;1621066;72;724;-71
2022/10/07 07:22:36;;;;;;;;;;;22.60;51.20;;;;;;1605403;72;1466;-72
2022/10/07 07:24:38;;;;;;;;;;;22.60;51.20;;;;;;1604712;72;1904;-71
2022/10/07 07:26:40;;;;;;;;;;;22.60;51.20;;;;;;1620259;72;1191;-70
2022/10/07 07:28:42;;;;;;;;;;;22.60;51.10;;;;;;1626043;72;745;-69
2022/10/07 07:30:44;;;;;;;;;;;22.70;51.20;;;;;;1609490;72;715;-71
2022/10/07 07:32:46;;;;;;;;;;;22.60;51.10;;;;;;1609948;72;1530;-73
2022/10/07 07:34:48;;;;;;;;;;;22.60;51.10;;;;;;1598940;72;832;-72
2022/10/07 07:36:51;;;;;;;;;;;22.60;51.00;;;;;;1619221;72;1121;-70
2022/10/07 07:38:53;;;;;;;;;;;22.70;51.10;;;;;;1601629;72;751;-70
2022/10/07 07:40:55;;;;;;;;;;;22.60;50.90;;;;;;1615902;72;781;-69
2022/10/07 07:42:57;;;;;;;;;;;22.80;50.90;;;;;;1616684;72;753;-70
2022/10/07 07:44:59;;;;;;;;;;;22.70;50.90;;;;;;1602016;72;1932;-70
2022/10/07 07:47:01;;;;;;;;;;;22.80;50.80;;;;;;1606954;72;1547;-68
2022/10/07 07:49:02;;;;;;;;;;;22.80;50.80;;;;;;1601754;72;752;-69
2022/10/07 07:51:05;;;;;;;;;;;22.80;50.70;;;;;;1623853;72;764;-70
2022/10/07 07:53:08;;;;;;;;;;;22.80;50.70;;;;;;1614598;72;808;-70
2022/10/07 07:55:10;;;;;;;;;;;22.80;50.70;;;;;;1614254;72;1166;-69
2022/10/07 07:57:12;;;;;;;;;;;22.80;50.60;;;;;;1615831;72;748;-69
2022/10/07 07:59:15;;;;;;;;;;;22.70;50.50;;;;;;1616548;72;807;-71
2022/10/07 08:01:17;;;;;;;;;;;22.80;50.50;;;;;;1616394;72;1515;-70
2022/10/07 08:03:19;;;;;;;;;;;22.90;50.60;;;;;;1620575;72;799;-70
2022/10/07 08:05:21;;;;;;;;;;;22.90;50.50;;;;;;1614345;72;1922;-70
2022/10/07 08:07:23;;;;;;;;;;;22.70;50.50;;;;;;1615697;72;709;-69
2022/10/07 08:09:25;;;;;;;;;;;22.80;50.40;;;;;;1618809;72;844;-70
2022/10/07 08:11:27;;;;;;;;;;;22.90;50.50;;;;;;1619016;72;745;-70
2022/10/07 08:13:29;;;;;;;;;;;22.70;50.30;;;;;;1615944;72;815;-70
2022/10/07 08:15:31;;;;;;;;;;;22.90;50.50;;;;;;1590042;73;1544;-69
2022/10/07 08:17:33;;;;;;;;;;;22.90;50.50;;;;;;1616185;72;728;-70
2022/10/07 08:19:35;;;;;;;;;;;22.80;50.30;;;;;;1613580;72;717;-68
2022/10/07 08:21:37;;;;;;;;;;;22.80;50.30;;;;;;1607164;72;723;-69
2022/10/07 08:23:39;;;;;;;;;;;22.80;50.30;;;;;;1615996;72;772;-69
2022/10/07 08:25:41;;;;;;;;;;;22.80;50.30;;;;;;1607214;72;1927;-70
2022/10/07 08:27:42;;;;;;;;;;;22.80;50.30;;;;;;1608139;72;665;-71
2022/10/07 08:29:44;;;;;;;;;;;22.80;50.30;;;;;;1618785;72;1573;-70
2022/10/07 08:31:47;;;;;;;;;;;22.80;50.20;;;;;;1621904;72;721;-70
2022/10/07 08:33:49;;;;;;;;;;;22.90;50.30;;;;;;1603174;72;701;-72
2022/10/07 08:35:51;;;;;;;;;;;22.90;50.30;;;;;;1623583;72;1152;-71
2022/10/07 08:37:53;;;;;;;;;;;22.80;50.20;;;;;;1620084;72;783;-66
2022/10/07 08:39:54;;;;;;;;;;;22.80;50.20;;;;;;1607203;72;777;-70
2022/10/07 08:42:12;;;;;;;;;;;22.80;50.20;;;;;;1614217;72;867;-69
2022/10/07 08:44:18;;;;;;;;;;;22.80;50.20;;;;;;1614469;72;1335;-67
2022/10/07 08:46:24;;;;;;;;;;;22.80;50.20;;;;;;1612604;72;1915;-71
2022/10/07 08:48:28;;;;;;;;;;;22.80;50.20;;;;;;1613067;72;711;-69
2022/10/07 08:50:31;;;;;;;;;;;22.80;50.20;;;;;;1612946;72;704;-69
2022/10/07 08:52:35;;;;;;;;;;;22.80;50.20;;;;;;1619232;72;1974;-69
2022/10/07 08:54:37;;;;;;;;;;;22.80;50.10;;;;;;1610160;72;748;-71
2022/10/07 08:56:39;;;;;;;;;;;22.80;50.10;;;;;;1617028;72;1521;-69
2022/10/07 08:58:48;;;;;;;;;;;22.90;50.20;;;;;;1612331;72;659;-69
2022/10/07 09:00:58;;;;;;;;;;;22.80;50.00;;;;;;1606755;72;820;-70
2022/10/07 09:03:07;;;;;;;;;;;22.80;50.00;;;;;;1621362;72;787;-69
2022/10/07 09:05:16;;;;;;;;;;;22.80;50.10;;;;;;1609975;72;1962;-69
2022/10/07 09:07:19;;;;;;;;;;;22.80;50.00;;;;;;1614777;72;763;-67
2022/10/07 09:09:41;;;;;;;;;;;22.80;50.10;;;;;;1613170;72;770;-68
2022/10/07 09:11:43;;;;;;;;;;;22.80;50.10;;;;;;1618818;72;1531;-67
2022/10/07 09:13:56;;;;;;;;;;;22.80;50.00;;;;;;1624686;72;773;-68
2022/10/07 09:16:10;;;;;;;;;;;22.80;50.10;;;;;;1609702;72;1223;-68
2022/10/07 09:18:14;;;;;;;;;;;22.80;50.00;;;;;;1614170;72;701;-68
2022/10/07 09:20:17;;;;;;;;;;;22.80;50.10;;;;;;1618040;72;1899;-68
2022/10/07 09:22:20;;;;;;;;;;;22.90;50.20;;;;;;1620666;72;682;-67
2022/10/07 09:24:23;;;;;;;;;;;22.90;50.00;;;;;;1604687;72;669;-67
2022/10/07 09:26:26;;;;;;;;;;;22.90;50.00;;;;;;1615816;72;1926;-67
2022/10/07 09:28:28;;;;;;;;;;;22.90;50.00;;;;;;1620491;72;765;-67
2022/10/07 09:30:31;;;;;;;;;;;23.00;50.00;;;;;;1597752;72;822;-66
2022/10/07 09:32:33;;;;;;;;;;;22.90;49.90;;;;;;1615158;72;801;-67
2022/10/07 09:34:35;;;;;;;;;;;22.90;49.80;;;;;;1616803;72;822;-68
2022/10/07 09:36:38;;;;;;;;;;;23.00;49.70;;;;;;1613224;71;1150;-68
2022/10/07 09:38:41;;;;;;;;;;;22.90;49.80;;;;;;1613818;72;1646;-68
2022/10/07 09:43:05;;;;;;;;;;;23.00;49.70;;;;;;1609105;72;739;-68
2022/10/07 09:45:26;;;;;;;;;;;23.00;49.70;;;;;;1604710;71;1752;-68
2022/10/07 09:47:29;;;;;;;;;;;23.00;49.70;;;;;;1617395;72;727;-68
2022/10/07 09:49:33;;;;;;;;;;;23.00;49.70;;;;;;1614975;72;1918;-68
2022/10/07 09:51:38;;;;;;;;;;;23.00;49.60;;;;;;1619609;72;786;-68
2022/10/07 09:53:40;;;;;;;;;;;23.00;49.60;;;;;;1610805;72;1766;-67
2022/10/07 09:55:42;;;;;;;;;;;23.00;49.50;;;;;;1607551;72;1896;-68
2022/10/07 09:57:44;;;;;;;;;;;23.10;49.60;;;;;;1615652;72;783;-69
2022/10/07 09:59:46;;;;;;;;;;;23.10;49.40;;;;;;1593590;73;978;-67
2022/10/07 10:01:49;;;;;;;;;;;23.00;49.30;;;;;;1617772;72;802;-69
2022/10/07 10:03:52;;;;;;;;;;;22.80;49.30;;;;;;1626874;72;796;-67
2022/10/07 10:05:56;;;;;;;;;;;22.90;49.70;;;;;;1596506;73;1969;-68
2022/10/07 10:07:59;;;;;;;;;;;22.70;49.70;;;;;;1618244;72;1539;-68
2022/10/07 10:10:05;;;;;;;;;;;22.80;50.00;;;;;;1622364;72;752;-68
2022/10/07 10:12:13;;;;;;;;;;;22.80;49.70;;;;;;1623430;72;743;-69
2022/10/07 10:14:28;;;;;;;;;;;22.80;49.70;;;;;;1623956;72;809;-68
2022/10/07 10:16:36;;;;;;;;;;;22.70;49.80;;;;;;1596030;73;1662;-68
2022/10/07 10:18:38;;;;;;;;;;;22.80;49.90;;;;;;1624566;72;1583;-68
2022/10/07 10:20:43;;;;;;;;;;;22.70;50.10;;;;;;1619103;72;846;-68
2022/10/07 10:22:43;;;;;;;;;;;22.80;50.10;;;;;;1621872;72;1712;-68
2022/10/07 10:27:06;;;;;;;;;;;22.80;49.80;;;;;;1620917;72;1888;-68
2022/10/07 10:29:13;;;;;;;;;;;22.80;49.90;;;;;;1622927;72;866;-67
2022/10/07 10:31:17;;;;;;;;;;;22.90;50.10;;;;;;1627401;72;775;-68
2022/10/07 10:33:26;;;;;;;;;;;23.00;50.00;;;;;;1613159;72;1654;-68
2022/10/07 10:35:28;;;;;;;;;;;22.90;49.70;;;;;;1621059;72;1555;-68
2022/10/07 10:37:36;;;;;;;;;;;22.90;49.70;;;;;;1610967;72;733;-70
2022/10/07 10:39:59;;;;;;;;;;;22.90;49.70;;;;;;1604991;72;910;-71
2022/10/07 10:41:59;;;;;;;;;;;22.90;49.80;;;;;;1608898;72;1883;-71
2022/10/07 10:44:09;;;;;;;;;;;22.90;49.80;;;;;;1600170;72;790;-70
2022/10/07 10:46:12;;;;;;;;;;;22.90;49.60;;;;;;1600108;72;1943;-71
2022/10/07 10:48:16;;;;;;;;;;;22.90;49.60;;;;;;1616611;72;1641;-70
2022/10/07 10:50:36;;;;;;;;;;;22.90;49.50;;;;;;1613981;72;1557;-71
2022/10/07 10:52:43;;;;;;;;;;;23.00;49.40;;;;;;1611307;72;832;-70
2022/10/07 10:55:01;;;;;;;;;;;23.00;49.30;;;;;;1624693;72;1654;-71
2022/10/07 10:57:15;;;;;;;;;;;23.00;49.40;;;;;;1614036;72;797;-71
2022/10/07 10:59:25;;;;;;;;;;;23.00;49.40;;;;;;1606721;72;731;-71
2022/10/07 11:01:35;;;;;;;;;;;22.90;49.40;;;;;;1603299;72;1934;-72
2022/10/07 11:03:38;;;;;;;;;;;22.90;49.40;;;;;;1618421;72;1547;-71
2022/10/07 11:05:41;;;;;;;;;;;23.00;49.50;;;;;;1614102;72;1893;-69
2022/10/07 11:07:45;;;;;;;;;;;22.90;49.40;;;;;;1612602;72;1901;-69
2022/10/07 11:09:48;;;;;;;;;;;22.90;49.50;;;;;;1600639;72;692;-68
2022/10/07 11:11:50;;;;;;;;;;;23.00;49.60;;;;;;1597854;72;1714;-68
2022/10/07 11:13:53;;;;;;;;;;;22.90;49.60;;;;;;1614091;72;724;-68
2022/10/07 11:16:03;;;;;;;;;;;22.90;49.60;;;;;;1608324;72;1174;-69
2022/10/07 11:18:06;;;;;;;;;;;22.90;49.50;;;;;;1616707;72;1554;-68
2022/10/07 11:20:13;;;;;;;;;;;22.90;49.60;;;;;;1600942;73;778;-68
2022/10/07 11:22:16;;;;;;;;;;;22.90;49.70;;;;;;1606677;72;737;-69
2022/10/07 11:24:26;;;;;;;;;;;23.00;49.40;;;;;;1617264;72;794;-69
2022/10/07 11:26:29;;;;;;;;;;;23.00;49.30;;;;;;1598026;72;1941;-68
2022/10/07 11:28:32;;;;;;;;;;;23.10;49.30;;;;;;1619906;72;735;-68
2022/10/07 11:30:38;;;;;;;;;;;23.00;49.20;;;;;;1615769;72;743;-66
2022/10/07 11:32:53;;;;;;;;;;;23.00;49.10;;;;;;1618089;72;1802;-69
2022/10/07 11:35:13;;;;;;;;;;;23.00;49.20;;;;;;1625710;72;1566;-69
2022/10/07 11:37:17;;;;;;;;;;;22.90;49.20;;;;;;1609052;72;791;-68
2022/10/07 11:39:19;;;;;;;;;;;22.90;49.30;;;;;;1614241;72;1870;-68
2022/10/07 11:41:38;;;;;;;;;;;22.80;49.20;;;;;;1621842;72;892;-68
2022/10/07 11:43:47;;;;;;;;;;;22.80;49.20;;;;;;1617882;73;1720;-67
2022/10/07 11:45:50;;;;;;;;;;;22.70;49.50;;;;;;1616949;72;1284;-67
2022/10/07 11:47:53;;;;;;;;;;;22.90;49.70;;;;;;1621050;72;1898;-67
2022/10/07 11:50:09;;;;;;;;;;;22.80;49.40;;;;;;1618939;72;762;-68
2022/10/07 11:52:12;;;;;;;;;;;22.90;49.50;;;;;;1620367;72;732;-66
2022/10/07 11:54:15;;;;;;;;;;;22.90;49.50;;;;;;1623160;72;1834;-69
2022/10/07 11:56:19;;;;;;;;;;;22.90;49.60;;;;;;1614480;72;1155;-67
2022/10/07 11:58:22;;;;;;;;;;;22.90;49.60;;;;;;1619831;72;1803;-67
2022/10/07 12:00:25;;;;;;;;;;;22.80;49.50;;;;;;1616455;72;1738;-68
2022/10/07 12:02:29;;;;;;;;;;;22.80;49.60;;;;;;1614376;72;808;-67
2022/10/07 12:04:35;;;;;;;;;;;22.80;49.60;;;;;;1617184;72;700;-67
2022/10/07 12:06:37;;;;;;;;;;;22.90;49.70;;;;;;1617716;72;1936;-68
2022/10/07 12:08:40;;;;;;;;;;;22.80;49.60;;;;;;1620563;72;766;-70
2022/10/07 12:10:42;;;;;;;;;;;22.80;49.70;;;;;;1620396;72;792;-70
2022/10/07 12:12:46;;;;;;;;;;;22.80;49.70;;;;;;1622418;72;778;-68
2022/10/07 12:14:50;;;;;;;;;;;22.60;49.70;;;;;;1613085;72;1518;-69
2022/10/07 12:16:53;;;;;;;;;;;22.60;49.90;;;;;;1622056;72;1925;-69
2022/10/07 12:19:06;;;;;;;;;;;22.60;50.00;;;;;;1622203;72;688;-69
2022/10/07 12:21:08;;;;;;;;;;;22.60;49.80;;;;;;1622891;72;663;-68
2022/10/07 12:23:28;;;;;;;;;;;22.60;50.00;;;;;;1621652;72;806;-68
2022/10/07 12:25:27;;;;;;;;;;;22.50;50.00;;;;;;1623630;72;1587;-68
2022/10/07 12:27:29;;;;;;;;;;;22.50;50.10;;;;;;1601345;72;1925;-67